Terminal Aerodrome Forecast
Issued by NWS

Home | Current Version | Previous Version | Text Only | Print | Product List | Glossary On
Versions: 1 2 3 4 5 6 7 8 9 10 11 12 13 14 15 16 17 18 19 20 21 22 23 24
000
FTUS43 KABR 262200 AAA
TAFMBG
TAF AMD
KMBG 262256Z 2623/2718 00000KT P6SM BKN050 OVC060
     FM270300 09009KT P6SM OVC010
     FM271500 13015KT P6SM OVC050=

USA.gov is the U.S. government's official web portal to all federal, state and local government web resources and services.